SHDE18 YPED-YPWR
Flight info
| Callsign | SHDE18 |
|---|---|
| Flight time | 0h 41m |
| Altitude | 35000 |
| Route | APOKI DCT ACTIN DCT OJJAY DCT PW3SE DCT PW3SI DCT PW3SF |
| Aircraft | GLF4/M-SFGHIRWXY/S |
Departure
| Time | 2026-04-16 13:35 |
|---|---|
| Airport | RAAF Base Edinburgh (YPED) |
Arrival
| Time | 2026-04-16 14:17 |
|---|---|
| Airport | Woomera Airfield (YPWR) |
| Time | Latitude | Longitude | Altitude | Speed | Heading |
|---|---|---|---|---|---|
| 2026-04-16 13:34 | -34.71683 | 138.61354 | 52 ft | 0 kts | 8° |
| 2026-04-16 13:35 | -34.71658 | 138.61358 | 51 ft | 18 kts | 7° |
| 2026-04-16 13:35 | -34.71266 | 138.61430 | 53 ft | 99 kts | 8° |
| 2026-04-16 13:35 | -34.70354 | 138.61607 | 253 ft | 151 kts | 10° |
| 2026-04-16 13:35 | -34.69238 | 138.61868 | 851 ft | 188 kts | 11° |
| 2026-04-16 13:36 | -34.67704 | 138.62229 | 821 ft | 266 kts | 9° |
| 2026-04-16 13:36 | -34.65603 | 138.62534 | 799 ft | 351 kts | 6° |
| 2026-04-16 13:36 | -34.63005 | 138.63017 | 1959 ft | 394 kts | 10° |
| 2026-04-16 13:36 | -34.60246 | 138.63784 | 2290 ft | 411 kts | 13° |
| 2026-04-16 13:37 | -34.57505 | 138.64754 | 2720 ft | 392 kts | 16° |
| 2026-04-16 13:37 | -34.54948 | 138.65642 | 3359 ft | 376 kts | 12° |
| 2026-04-16 13:37 | -34.52359 | 138.66195 | 2852 ft | 377 kts | 5° |
| 2026-04-16 13:37 | -34.49820 | 138.66422 | 3151 ft | 348 kts | 1° |
| 2026-04-16 13:38 | -34.47493 | 138.66581 | 3098 ft | 329 kts | 359° |
| 2026-04-16 13:38 | -34.45202 | 138.66569 | 2611 ft | 327 kts | 357° |
| 2026-04-16 13:38 | -34.42948 | 138.66686 | 2353 ft | 319 kts | 5° |
| 2026-04-16 13:38 | -34.40790 | 138.67189 | 2141 ft | 315 kts | 12° |
| 2026-04-16 13:39 | -34.38669 | 138.67760 | 1946 ft | 314 kts | 10° |
| 2026-04-16 13:39 | -34.36507 | 138.68149 | 1895 ft | 311 kts | 6° |
| 2026-04-16 13:39 | -34.34421 | 138.68472 | 2333 ft | 297 kts | 7° |
| 2026-04-16 13:39 | -34.32425 | 138.68880 | 2809 ft | 281 kts | 8° |
| 2026-04-16 13:40 | -34.30559 | 138.69265 | 3279 ft | 265 kts | 6° |
| 2026-04-16 13:40 | -34.28782 | 138.69600 | 3750 ft | 258 kts | 5° |
| 2026-04-16 13:40 | -34.27001 | 138.69928 | 4224 ft | 259 kts | 5° |
| 2026-04-16 13:40 | -34.25194 | 138.70274 | 4724 ft | 277 kts | 5° |
| 2026-04-16 13:41 | -34.23137 | 138.70658 | 5273 ft | 319 kts | 5° |
| 2026-04-16 13:41 | -34.20801 | 138.71098 | 5825 ft | 362 kts | 6° |
| 2026-04-16 13:41 | -34.18202 | 138.71614 | 6384 ft | 395 kts | 6° |
| 2026-04-16 13:41 | -34.15384 | 138.72160 | 6907 ft | 417 kts | 6° |
| 2026-04-16 13:42 | -34.12527 | 138.72696 | 7393 ft | 422 kts | 6° |
| 2026-04-16 13:42 | -34.09620 | 138.73249 | 7884 ft | 425 kts | 6° |
| 2026-04-16 13:42 | -34.06683 | 138.73817 | 8375 ft | 428 kts | 6° |
| 2026-04-16 13:42 | -34.03763 | 138.74368 | 8870 ft | 432 kts | 6° |
| 2026-04-16 13:43 | -34.00742 | 138.74942 | 9388 ft | 435 kts | 6° |
| 2026-04-16 13:43 | -33.97783 | 138.75516 | 9904 ft | 439 kts | 6° |
| 2026-04-16 13:43 | -33.94753 | 138.76099 | 10390 ft | 442 kts | 6° |
| 2026-04-16 13:43 | -33.91734 | 138.76687 | 10858 ft | 445 kts | 6° |
| 2026-04-16 13:44 | -33.88629 | 138.77293 | 11353 ft | 448 kts | 6° |
| 2026-04-16 13:44 | -33.85534 | 138.77724 | 11825 ft | 448 kts | 358° |
| 2026-04-16 13:44 | -33.82477 | 138.77204 | 12279 ft | 444 kts | 340° |
| 2026-04-16 13:44 | -33.79745 | 138.75555 | 12763 ft | 438 kts | 322° |
| 2026-04-16 13:45 | -33.77562 | 138.73022 | 13274 ft | 436 kts | 308° |
| 2026-04-16 13:45 | -33.75766 | 138.70097 | 13812 ft | 437 kts | 303° |
| 2026-04-16 13:45 | -33.74073 | 138.67050 | 14304 ft | 439 kts | 301° |
| 2026-04-16 13:45 | -33.72408 | 138.63957 | 14767 ft | 442 kts | 301° |
| 2026-04-16 13:46 | -33.70767 | 138.60836 | 15256 ft | 444 kts | 300° |
| 2026-04-16 13:46 | -33.69219 | 138.57623 | 15733 ft | 445 kts | 294° |
| 2026-04-16 13:46 | -33.68084 | 138.54158 | 16229 ft | 446 kts | 287° |
| 2026-04-16 13:46 | -33.67187 | 138.50631 | 16715 ft | 449 kts | 285° |
| 2026-04-16 13:47 | -33.66225 | 138.47080 | 17231 ft | 452 kts | 289° |
| 2026-04-16 13:47 | -33.64965 | 138.43572 | 17753 ft | 455 kts | 294° |
| 2026-04-16 13:47 | -33.63561 | 138.40155 | 18281 ft | 459 kts | 294° |
| 2026-04-16 13:47 | -33.62303 | 138.36628 | 18759 ft | 460 kts | 289° |
| 2026-04-16 13:48 | -33.61212 | 138.33011 | 19223 ft | 462 kts | 289° |
| 2026-04-16 13:48 | -33.59970 | 138.29430 | 19692 ft | 466 kts | 293° |
| 2026-04-16 13:48 | -33.58556 | 138.25922 | 20174 ft | 468 kts | 294° |
| 2026-04-16 13:48 | -33.57266 | 138.22329 | 20655 ft | 469 kts | 289° |
| 2026-04-16 13:49 | -33.56137 | 138.18648 | 21155 ft | 471 kts | 289° |
| 2026-04-16 13:49 | -33.54889 | 138.15055 | 21645 ft | 473 kts | 292° |
| 2026-04-16 13:49 | -33.53474 | 138.11527 | 22159 ft | 474 kts | 293° |
| 2026-04-16 13:49 | -33.51873 | 138.07971 | 22679 ft | 477 kts | 300° |
| 2026-04-16 13:50 | -33.49950 | 138.04791 | 23197 ft | 477 kts | 305° |
| 2026-04-16 13:50 | -33.47744 | 138.01873 | 23717 ft | 472 kts | 311° |
| 2026-04-16 13:50 | -33.45289 | 137.99294 | 24159 ft | 463 kts | 317° |
| 2026-04-16 13:50 | -33.42667 | 137.97112 | 24603 ft | 456 kts | 323° |
| 2026-04-16 13:51 | -33.39954 | 137.95199 | 25056 ft | 447 kts | 324° |
| 2026-04-16 13:51 | -33.37357 | 137.93332 | 25509 ft | 438 kts | 323° |
| 2026-04-16 13:51 | -33.34737 | 137.91440 | 25980 ft | 429 kts | 324° |
| 2026-04-16 13:51 | -33.32184 | 137.89649 | 26455 ft | 421 kts | 324° |
| 2026-04-16 13:52 | -33.29706 | 137.87909 | 26932 ft | 412 kts | 323° |
| 2026-04-16 13:52 | -33.27270 | 137.86164 | 27423 ft | 403 kts | 323° |
| 2026-04-16 13:52 | -33.24903 | 137.84479 | 27918 ft | 395 kts | 323° |
| 2026-04-16 13:52 | -33.22564 | 137.82832 | 28428 ft | 386 kts | 323° |
| 2026-04-16 13:53 | -33.20277 | 137.81215 | 28937 ft | 377 kts | 323° |
| 2026-04-16 13:53 | -33.18048 | 137.79632 | 29460 ft | 369 kts | 323° |
| 2026-04-16 13:53 | -33.15869 | 137.78094 | 29992 ft | 360 kts | 323° |
| 2026-04-16 13:53 | -33.13742 | 137.76592 | 30470 ft | 350 kts | 323° |
| 2026-04-16 13:54 | -33.11680 | 137.75134 | 30931 ft | 340 kts | 322° |
| 2026-04-16 13:54 | -33.09687 | 137.73729 | 31394 ft | 331 kts | 322° |
| 2026-04-16 13:54 | -33.07718 | 137.72340 | 31866 ft | 320 kts | 322° |
| 2026-04-16 13:54 | -33.05838 | 137.71013 | 32342 ft | 309 kts | 321° |
| 2026-04-16 13:55 | -33.04006 | 137.69724 | 32781 ft | 304 kts | 321° |
| 2026-04-16 13:55 | -33.02191 | 137.68428 | 32664 ft | 316 kts | 321° |
| 2026-04-16 13:55 | -33.00270 | 137.67073 | 32674 ft | 324 kts | 321° |
| 2026-04-16 13:56 | -32.96300 | 137.64288 | 32679 ft | 337 kts | 321° |
| 2026-04-16 13:56 | -32.92173 | 137.61388 | 32673 ft | 351 kts | 322° |
| 2026-04-16 13:57 | -32.87883 | 137.58373 | 32674 ft | 364 kts | 322° |
| 2026-04-16 13:57 | -32.83452 | 137.55267 | 32677 ft | 376 kts | 322° |
| 2026-04-16 13:58 | -32.78866 | 137.52057 | 32676 ft | 388 kts | 322° |
| 2026-04-16 13:58 | -32.76532 | 137.50421 | 32674 ft | 394 kts | 323° |
| 2026-04-16 13:58 | -32.71742 | 137.47075 | 32672 ft | 405 kts | 323° |
| 2026-04-16 13:59 | -32.66847 | 137.43655 | 32679 ft | 416 kts | 323° |
| 2026-04-16 13:59 | -32.61793 | 137.40131 | 32674 ft | 426 kts | 323° |
| 2026-04-16 14:00 | -32.56643 | 137.36546 | 32674 ft | 436 kts | 323° |
| 2026-04-16 14:00 | -32.51314 | 137.32835 | 32257 ft | 455 kts | 323° |
| 2026-04-16 14:01 | -32.48571 | 137.30961 | 31667 ft | 466 kts | 326° |
| 2026-04-16 14:01 | -32.45590 | 137.29306 | 31328 ft | 467 kts | 331° |
| 2026-04-16 14:01 | -32.42664 | 137.27882 | 31317 ft | 456 kts | 331° |
| 2026-04-16 14:01 | -32.39745 | 137.26437 | 31311 ft | 445 kts | 331° |
| 2026-04-16 14:02 | -32.34144 | 137.23675 | 31307 ft | 427 kts | 331° |
| 2026-04-16 14:02 | -32.28802 | 137.21050 | 31304 ft | 410 kts | 330° |
| 2026-04-16 14:03 | -32.26209 | 137.19775 | 30963 ft | 410 kts | 330° |
| 2026-04-16 14:03 | -32.23529 | 137.18451 | 30014 ft | 425 kts | 331° |
| 2026-04-16 14:03 | -32.20730 | 137.17078 | 28969 ft | 437 kts | 332° |
| 2026-04-16 14:03 | -32.17886 | 137.15692 | 27987 ft | 447 kts | 332° |
| 2026-04-16 14:04 | -32.14980 | 137.14270 | 27027 ft | 458 kts | 332° |
| 2026-04-16 14:04 | -32.12036 | 137.12827 | 26123 ft | 468 kts | 333° |
| 2026-04-16 14:04 | -32.09026 | 137.11359 | 25236 ft | 476 kts | 333° |
| 2026-04-16 14:04 | -32.05910 | 137.09837 | 24391 ft | 484 kts | 333° |
| 2026-04-16 14:05 | -32.02788 | 137.08310 | 23734 ft | 486 kts | 333° |
| 2026-04-16 14:05 | -31.99673 | 137.06796 | 22978 ft | 488 kts | 333° |
| 2026-04-16 14:05 | -31.96530 | 137.05269 | 22216 ft | 489 kts | 333° |
| 2026-04-16 14:05 | -31.93376 | 137.03722 | 21482 ft | 490 kts | 333° |
| 2026-04-16 14:06 | -31.90213 | 137.02179 | 20766 ft | 492 kts | 334° |
| 2026-04-16 14:06 | -31.87078 | 137.00670 | 20068 ft | 490 kts | 334° |
| 2026-04-16 14:06 | -31.83972 | 136.99166 | 19394 ft | 486 kts | 334° |
| 2026-04-16 14:06 | -31.80833 | 136.97622 | 18714 ft | 482 kts | 333° |
| 2026-04-16 14:07 | -31.78793 | 136.96625 | 18265 ft | 480 kts | 334° |
| 2026-04-16 14:08 | -31.63083 | 136.89042 | 14491 ft | 457 kts | 335° |
| 2026-04-16 14:08 | -31.60215 | 136.87660 | 13817 ft | 453 kts | 335° |
| 2026-04-16 14:08 | -31.57305 | 136.86230 | 13060 ft | 448 kts | 335° |
| 2026-04-16 14:09 | -31.46919 | 136.81230 | 10449 ft | 432 kts | 335° |
| 2026-04-16 14:10 | -31.44150 | 136.79889 | 9739 ft | 429 kts | 337° |
| 2026-04-16 14:10 | -31.41308 | 136.78962 | 9111 ft | 421 kts | 349° |
| 2026-04-16 14:10 | -31.38456 | 136.78611 | 8935 ft | 405 kts | 355° |
| 2026-04-16 14:10 | -31.35680 | 136.78747 | 8190 ft | 407 kts | 5° |
| 2026-04-16 14:11 | -31.32841 | 136.79160 | 7407 ft | 402 kts | 5° |
| 2026-04-16 14:11 | -31.30177 | 136.79425 | 6635 ft | 369 kts | 2° |
| 2026-04-16 14:11 | -31.27730 | 136.79646 | 5820 ft | 344 kts | 4° |
| 2026-04-16 14:11 | -31.25405 | 136.79970 | 5025 ft | 334 kts | 6° |
| 2026-04-16 14:12 | -31.23130 | 136.80303 | 4217 ft | 320 kts | 6° |
| 2026-04-16 14:12 | -31.21006 | 136.80626 | 3686 ft | 293 kts | 6° |
| 2026-04-16 14:12 | -31.18972 | 136.80911 | 2501 ft | 293 kts | 5° |
| 2026-04-16 14:12 | -31.17067 | 136.81091 | 1751 ft | 278 kts | 4° |
| 2026-04-16 14:13 | -31.15243 | 136.81202 | 1378 ft | 254 kts | 3° |
| 2026-04-16 14:13 | -31.13542 | 136.81301 | 1222 ft | 229 kts | 5° |
| 2026-04-16 14:13 | -31.12210 | 136.81940 | 1003 ft | 188 kts | 41° |
| 2026-04-16 14:13 | -31.11820 | 136.83185 | 854 ft | 162 kts | 99° |
| 2026-04-16 14:14 | -31.12458 | 136.84158 | 773 ft | 148 kts | 150° |
| 2026-04-16 14:14 | -31.13384 | 136.84496 | 759 ft | 135 kts | 163° |
| 2026-04-16 14:14 | -31.14307 | 136.84714 | 875 ft | 156 kts | 169° |
| 2026-04-16 14:14 | -31.15493 | 136.84938 | 1116 ft | 184 kts | 171° |
| 2026-04-16 14:15 | -31.16808 | 136.85114 | 1336 ft | 199 kts | 175° |
| 2026-04-16 14:15 | -31.18222 | 136.85220 | 1496 ft | 201 kts | 176° |
| 2026-04-16 14:15 | -31.19416 | 136.84829 | 1613 ft | 169 kts | 220° |
| 2026-04-16 14:15 | -31.19779 | 136.83593 | 1260 ft | 163 kts | 283° |
| 2026-04-16 14:16 | -31.19134 | 136.82745 | 1359 ft | 128 kts | 328° |
| 2026-04-16 14:16 | -31.18383 | 136.82076 | 1123 ft | 139 kts | 319° |
| 2026-04-16 14:16 | -31.17628 | 136.81350 | 1034 ft | 141 kts | 330° |
| 2026-04-16 14:16 | -31.16703 | 136.81011 | 880 ft | 141 kts | 354° |
| 2026-04-16 14:17 | -31.15756 | 136.81104 | 639 ft | 136 kts | 11° |
| 2026-04-16 14:17 | -31.14887 | 136.81232 | 558 ft | 95 kts | 360° |
| 2026-04-16 14:17 | -31.14612 | 136.81235 | 554 ft | 11 kts | 288° |
| 2026-04-16 14:17 | -31.14597 | 136.81100 | 557 ft | 23 kts | 277° |
| 2026-04-16 14:18 | -31.14593 | 136.80918 | 553 ft | 22 kts | 248° |
| 2026-04-16 14:18 | -31.14685 | 136.80845 | 554 ft | 3 kts | 231° |
| 2026-04-16 14:18 | -31.14692 | 136.80819 | 556 ft | 4 kts | 261° |
| 2026-04-16 14:18 | -31.14694 | 136.80784 | 553 ft | 5 kts | 268° |
| 2026-04-16 14:19 | -31.14694 | 136.80758 | 553 ft | 0 kts | 274° |